Time;durP1;ratioP1;P1;durP2;ratioP2;P2;SDS_P1;SDS_P2;PMS_P1;PMS_P2;Temp;Humidity;BMP_temperature;BMP_pressure;BME280_temperature;BME280_humidity;BME280_pressure;Samples;Min_cycle;Max_cycle;Signal;HPM_P1;HPM_P2
2021/11/05 00:00:25;;;;;;;19.67;10.40;;;;;;;9.53;84.23;96818.31;5093051;28;20051;-64
2021/11/05 00:02:54;;;;;;;17.90;11.15;;;;;;;9.53;84.58;96817.44;5093224;28;20021;-62
2021/11/05 00:05:21;;;;;;;16.65;9.07;;;;;;;9.56;83.75;96826.06;5093255;28;20024;-64
2021/11/05 00:07:47;;;;;;;19.85;7.90;;;;;;;9.56;83.28;96825.19;5093197;28;20043;-64
2021/11/05 00:10:13;;;;;;;11.07;8.20;;;;;;;9.54;83.83;96820.00;5093077;28;20055;-65
2021/11/05 00:12:38;;;;;;;11.50;7.72;;;;;;;9.56;83.26;96820.81;5093527;28;20025;-66
2021/11/05 00:15:05;;;;;;;14.13;7.72;;;;;;;9.53;82.94;96827.88;5093076;28;20024;-64
2021/11/05 00:17:30;;;;;;;16.27;8.13;;;;;;;9.46;82.88;96838.50;5093066;28;20016;-63
2021/11/05 00:19:56;;;;;;;12.88;8.40;;;;;;;9.43;83.13;96833.41;5092990;28;20035;-64
2021/11/05 00:22:22;;;;;;;13.35;6.85;;;;;;;9.43;82.76;96830.78;5093138;28;20028;-62
2021/11/05 00:24:47;;;;;;;19.17;8.68;;;;;;;9.45;83.03;96831.56;5094175;28;20020;-64
2021/11/05 00:27:13;;;;;;;12.45;8.18;;;;;;;9.43;82.96;96837.75;5097017;28;20424;-64
2021/11/05 00:29:41;;;;;;;18.60;8.88;;;;;;;9.39;82.94;96838.75;5096979;28;20103;-62
2021/11/05 00:32:07;;;;;;;15.68;9.57;;;;;;;9.41;82.71;96834.31;5096971;28;20032;-62
2021/11/05 00:34:33;;;;;;;16.30;9.50;;;;;;;9.41;82.32;96827.34;5096934;28;20035;-61
2021/11/05 00:36:58;;;;;;;10.48;8.27;;;;;;;9.42;82.00;96826.44;5097057;28;20081;-60
2021/11/05 00:39:24;;;;;;;16.65;8.63;;;;;;;9.35;82.06;96823.16;5096894;28;20478;-61
2021/11/05 00:41:49;;;;;;;13.85;8.45;;;;;;;9.36;82.35;96824.00;5096736;28;20028;-60
2021/11/05 00:44:15;;;;;;;16.42;7.63;;;;;;;9.35;82.23;96822.31;5096816;28;20020;-62
2021/11/05 00:46:40;;;;;;;15.95;9.35;;;;;;;9.36;83.08;96821.38;5096730;28;20111;-62
2021/11/05 00:49:06;;;;;;;22.80;9.32;;;;;;;9.30;83.32;96811.97;5096645;28;20067;-62
2021/11/05 00:51:32;;;;;;;11.98;9.55;;;;;;;9.31;83.58;96818.94;5096414;28;20596;-63
2021/11/05 00:53:57;;;;;;;17.25;7.82;;;;;;;9.33;83.33;96809.28;5096615;28;20067;-64
2021/11/05 00:56:23;;;;;;;13.73;8.35;;;;;;;9.31;82.98;96807.63;5096756;28;20025;-65
2021/11/05 00:58:49;;;;;;;10.93;7.40;;;;;;;9.31;82.75;96802.41;5096600;28;20028;-64
2021/11/05 01:01:15;;;;;;;17.95;9.43;;;;;;;9.21;83.52;96799.19;5096163;28;20490;-62
2021/11/05 01:03:40;;;;;;;18.83;9.73;;;;;;;9.16;83.88;96788.91;5096346;28;20024;-63
2021/11/05 01:06:06;;;;;;;20.30;9.82;;;;;;;9.23;84.24;96787.81;5096324;28;20020;-64
2021/11/05 01:08:32;;;;;;;12.57;8.98;;;;;;;9.23;83.67;96800.00;5096389;28;20490;-61
2021/11/05 01:10:57;;;;;;;14.20;8.65;;;;;;;9.27;83.37;96804.25;5096261;28;20028;-63
2021/11/05 01:13:23;;;;;;;13.43;8.07;;;;;;;9.24;82.91;96806.94;5096230;28;20028;-63
2021/11/05 01:15:49;;;;;;;15.55;7.90;;;;;;;9.23;83.35;96807.84;5096115;28;20121;-63
2021/11/05 01:18:15;;;;;;;17.85;7.85;;;;;;;9.20;82.58;96811.41;5096088;28;20097;-63
2021/11/05 01:20:40;;;;;;;14.90;8.35;;;;;;;9.16;83.26;96809.78;5096101;28;20039;-62
2021/11/05 01:23:07;;;;;;;10.80;7.50;;;;;;;9.09;82.93;96803.00;5096057;28;20028;-62
2021/11/05 01:25:34;;;;;;;13.52;9.80;;;;;;;9.09;83.80;96808.22;5094716;28;20028;-63
2021/11/05 01:28:00;;;;;;;17.52;10.48;;;;;;;9.15;84.70;96809.81;5095974;28;20027;-64
2021/11/05 01:30:26;;;;;;;14.85;9.70;;;;;;;9.17;84.58;96808.00;5096016;28;20035;-63
2021/11/05 01:32:51;;;;;;;23.23;8.05;;;;;;;9.20;83.81;96807.91;5095913;28;20050;-66
2021/11/05 01:35:17;;;;;;;17.67;8.98;;;;;;;9.15;83.78;96802.84;5095826;28;20024;-61
2021/11/05 01:37:44;;;;;;;13.07;8.45;;;;;;;9.18;83.51;96807.13;5094880;28;20032;-65
2021/11/05 01:40:11;;;;;;;65.07;45.17;;;;;;;9.16;83.00;96801.09;5095714;28;20022;-65
2021/11/05 01:42:37;;;;;;;47.47;31.88;;;;;;;9.12;82.37;96808.13;5095684;28;20031;-61
2021/11/05 01:45:08;;;;;;;35.30;22.65;;;;;;;9.03;82.04;96801.41;5095651;28;20494;-61
2021/11/05 01:47:34;;;;;;;;;;;;;;;8.89;82.34;96801.81;5095977;28;20024;-64
2021/11/05 01:50:00;;;;;;;18.35;11.60;;;;;;;8.83;82.64;96794.16;5095473;28;19912;-61
2021/11/05 01:52:25;;;;;;;19.65;10.95;;;;;;;8.85;82.86;96794.94;5094229;28;20024;-63
2021/11/05 01:54:52;;;;;;;25.60;14.32;;;;;;;8.87;82.84;96801.00;5095407;28;20072;-63
2021/11/05 01:57:18;;;;;;;20.35;10.75;;;;;;;8.93;82.60;96798.22;5095319;28;20020;-64
2021/11/05 01:59:52;;;;;;;16.60;8.57;;;;;;;8.93;82.50;96794.75;5095255;28;20393;-65
2021/11/05 02:02:18;;;;;;;18.30;8.05;;;;;;;8.91;82.26;96796.56;5095343;28;20024;-65
2021/11/05 02:04:44;;;;;;;17.33;8.57;;;;;;;8.86;82.23;96791.47;5095245;28;20028;-66
2021/11/05 02:07:11;;;;;;;12.82;8.43;;;;;;;8.84;82.95;96795.84;5095290;28;20355;-62
2021/11/05 02:09:40;;;;;;;11.38;7.65;;;;;;;8.81;82.80;96795.94;5095141;28;20096;-63
2021/11/05 02:12:08;;;;;;;19.33;9.60;;;;;;;8.74;82.82;96795.25;5095102;28;20024;-64
2021/11/05 02:14:33;;;;;;;10.40;7.95;;;;;;;8.75;82.72;96788.25;5094998;28;20474;-65
2021/11/05 02:17:02;;;;;;;12.02;7.57;;;;;;;8.75;82.19;96780.44;5095008;28;20077;-63
2021/11/05 02:19:31;;;;;;;11.52;7.53;;;;;;;8.72;82.10;96787.47;5094917;28;20028;-64
2021/11/05 02:21:58;;;;;;;10.05;7.22;;;;;;;8.74;81.75;96783.97;5094905;28;20543;-62
2021/11/05 02:24:26;;;;;;;13.02;9.13;;;;;;;8.76;82.08;96795.22;5094858;28;20027;-63
2021/11/05 02:26:53;;;;;;;15.38;9.82;;;;;;;8.73;82.72;96796.13;5094800;28;20028;-61
2021/11/05 02:29:20;;;;;;;13.77;8.15;;;;;;;8.75;83.61;96803.91;5094844;28;20087;-67
2021/11/05 02:31:46;;;;;;;14.80;8.68;;;;;;;8.76;83.26;96803.03;5094556;28;20031;-65
2021/11/05 02:34:12;;;;;;;10.30;7.78;;;;;;;8.79;83.90;96808.19;5094699;28;20020;-62
2021/11/05 02:36:37;;;;;;;13.65;8.23;;;;;;;8.74;83.72;96803.06;5094761;28;20028;-62
2021/11/05 02:39:08;;;;;;;14.75;8.27;;;;;;;8.76;83.15;96798.66;5094637;28;20055;-63
2021/11/05 02:41:35;;;;;;;;;;;;;;;8.78;83.45;96799.47;5095095;28;20030;-63
2021/11/05 02:44:00;;;;;;;17.65;8.65;;;;;;;8.71;83.74;96798.81;5094449;28;19908;-63
2021/11/05 02:46:26;;;;;;;19.88;8.30;;;;;;;8.69;83.40;96808.41;5094465;28;20028;-63
2021/11/05 02:48:57;;;;;;;15.30;9.27;;;;;;;8.67;84.12;96806.75;5094286;28;20729;-64
2021/11/05 02:51:22;;;;;;;;;;;;;;;8.66;84.04;96807.63;5094695;28;20035;-64
2021/11/05 02:53:48;;;;;;;17.30;7.95;;;;;;;8.62;84.18;96813.81;5094354;28;19912;-64
2021/11/05 02:56:13;;;;;;;12.60;8.35;;;;;;;8.62;84.10;96808.59;5094453;28;20412;-64
2021/11/05 02:58:39;;;;;;;18.67;9.05;;;;;;;8.63;84.62;96815.53;5094271;28;20031;-64
2021/11/05 03:01:04;;;;;;;15.80;8.98;;;;;;;8.59;84.26;96810.41;5093952;28;20079;-64
2021/11/05 03:03:30;;;;;;;24.08;10.80;;;;;;;8.52;84.69;96814.00;5094144;28;20024;-61
2021/11/05 03:05:55;;;;;;;14.00;7.40;;;;;;;8.61;84.57;96817.34;5094042;28;20051;-65
2021/11/05 03:08:21;;;;;;;21.08;9.68;;;;;;;8.57;83.54;96816.53;5094089;28;20032;-65
2021/11/05 03:10:47;;;;;;;18.13;7.68;;;;;;;8.47;83.76;96806.34;5093909;28;20063;-63
2021/11/05 03:13:12;;;;;;;12.57;7.50;;;;;;;8.53;83.89;96814.88;5093836;28;20463;-62
2021/11/05 03:15:38;;;;;;;16.92;8.20;;;;;;;8.51;83.75;96817.53;5093990;28;20107;-62
2021/11/05 03:18:04;;;;;;;16.27;7.78;;;;;;;8.58;84.23;96823.50;5093938;28;20020;-65
2021/11/05 03:20:29;;;;;;;11.95;8.48;;;;;;;8.58;83.87;96824.31;5094028;28;20016;-62
2021/11/05 03:22:55;;;;;;;11.18;7.55;;;;;;;8.62;83.52;96821.66;5093841;28;20020;-61
2021/11/05 03:25:21;;;;;;;13.43;7.53;;;;;;;8.56;82.66;96818.31;5093775;28;20058;-62
2021/11/05 03:27:47;;;;;;;13.57;7.43;;;;;;;8.45;82.88;96818.53;5093652;28;20064;-65
2021/11/05 03:30:20;;;;;;;17.98;8.48;;;;;;;8.44;83.05;96821.19;5093495;28;20031;-62
2021/11/05 03:32:46;;;;;;;18.40;9.07;;;;;;;8.42;83.01;96807.31;5093660;28;20106;-65
2021/11/05 03:35:13;;;;;;;14.98;6.78;;;;;;;8.46;82.55;96814.19;5093761;28;20020;-62
2021/11/05 03:37:40;;;;;;;13.18;6.72;;;;;;;8.43;83.15;96807.28;5093559;28;20062;-62
2021/11/05 03:40:09;;;;;;;14.93;6.93;;;;;;;8.42;83.01;96808.19;5093520;28;20107;-61
2021/11/05 03:42:35;;;;;;;15.60;6.45;;;;;;;8.45;83.01;96812.47;5093429;28;20092;-65
2021/11/05 03:45:00;;;;;;;8.55;6.55;;;;;;;8.41;82.97;96808.22;5093413;28;20024;-65
2021/11/05 03:47:26;;;;;;;14.48;7.40;;;;;;;8.42;83.46;96799.50;5093570;28;20039;-62
2021/11/05 03:49:52;;;;;;;14.35;8.00;;;;;;;8.43;83.92;96799.47;5093385;28;20024;-66
2021/11/05 03:52:17;;;;;;;18.15;8.30;;;;;;;8.46;84.19;96801.16;5093368;28;20048;-63
2021/11/05 03:54:43;;;;;;;11.98;6.10;;;;;;;8.49;82.95;96805.44;5093349;28;20020;-65
2021/11/05 03:57:10;;;;;;;10.13;5.82;;;;;;;8.45;82.30;96800.28;5093322;28;20081;-62
2021/11/05 03:59:35;;;;;;;15.82;6.32;;;;;;;8.44;81.83;96802.94;5092585;28;20028;-60
2021/11/05 04:02:01;;;;;;;13.23;8.88;;;;;;;8.40;82.04;96804.75;5093326;28;20025;-64
2021/11/05 04:04:26;;;;;;;29.83;17.52;;;;;;;8.39;82.22;96808.25;5093117;28;20032;-64
2021/11/05 04:06:52;;;;;;;11.07;7.72;;;;;;;8.33;82.03;96806.66;5093232;28;20412;-62
2021/11/05 04:09:18;;;;;;;11.82;6.70;;;;;;;8.27;82.06;96808.56;5093093;28;20095;-62
2021/11/05 04:11:44;;;;;;;11.65;6.93;;;;;;;8.28;82.29;96805.91;5093180;28;20028;-65
2021/11/05 04:14:12;;;;;;;12.65;8.10;;;;;;;8.22;82.28;96809.53;5093103;28;20028;-66
2021/11/05 04:16:38;;;;;;;10.23;7.15;;;;;;;8.18;82.67;96804.44;5093011;28;20442;-64
2021/11/05 04:19:04;;;;;;;10.73;7.05;;;;;;;8.20;82.39;96807.88;5093127;28;20062;-64
2021/11/05 04:21:30;;;;;;;20.25;9.13;;;;;;;8.21;82.76;96806.97;5092971;28;20489;-64
2021/11/05 04:23:56;;;;;;;12.82;7.90;;;;;;;8.16;82.34;96807.06;5093097;28;20027;-62
2021/11/05 04:26:21;;;;;;;12.15;7.20;;;;;;;8.11;82.63;96803.72;5093018;28;20048;-64
2021/11/05 04:28:47;;;;;;;14.98;7.78;;;;;;;8.08;82.81;96802.06;5093063;28;20427;-64
2021/11/05 04:31:13;;;;;;;10.98;6.55;;;;;;;8.06;82.79;96800.38;5093083;28;20032;-65
2021/11/05 04:33:39;;;;;;;18.00;7.43;;;;;;;8.05;83.00;96806.47;5092877;28;20020;-62
2021/11/05 04:36:05;;;;;;;12.02;7.72;;;;;;;7.96;84.05;96802.34;5093059;28;20023;-63
2021/11/05 04:38:31;;;;;;;21.95;9.93;;;;;;;7.97;84.42;96798.84;5092867;28;20020;-64
2021/11/05 04:40:57;;;;;;;15.23;8.02;;;;;;;8.02;84.10;96804.81;5092840;28;20082;-62
2021/11/05 04:43:23;;;;;;;13.43;9.07;;;;;;;7.99;84.90;96807.50;5092809;28;20099;-63
2021/11/05 04:45:49;;;;;;;15.18;8.70;;;;;;;7.96;84.90;96810.16;5093522;28;20028;-60
2021/11/05 04:48:15;;;;;;;15.98;9.40;;;;;;;8.06;85.42;96816.00;5092837;28;20032;-61
2021/11/05 04:50:41;;;;;;;12.18;9.10;;;;;;;8.16;85.06;96822.69;5092905;28;20531;-64
2021/11/05 04:53:08;;;;;;;15.18;8.02;;;;;;;8.20;84.84;96826.97;5092689;28;20048;-65
2021/11/05 04:55:33;;;;;;;16.05;6.40;;;;;;;8.26;84.13;96827.72;5092807;28;20016;-64
2021/11/05 04:57:59;;;;;;;20.42;7.28;;;;;;;8.25;83.94;96821.63;5092689;28;20051;-65
2021/11/05 05:00:27;;;;;;;10.80;7.25;;;;;;;8.24;83.48;96814.72;5092494;28;20036;-60
2021/11/05 05:02:54;;;;;;;13.32;8.55;;;;;;;8.20;84.32;96820.91;5092701;28;20028;-62
2021/11/05 05:05:20;;;;;;;15.45;9.27;;;;;;;8.28;85.27;96818.94;5092766;28;20052;-63
2021/11/05 05:07:46;;;;;;;17.20;9.05;;;;;;;8.33;85.40;96805.81;5092619;28;20073;-61
2021/11/05 05:10:13;;;;;;;22.75;9.43;;;;;;;8.44;86.13;96813.38;5092507;28;20020;-61
2021/11/05 05:12:40;;;;;;;17.67;11.35;;;;;;;8.54;85.53;96809.66;5094901;28;20020;-65
2021/11/05 05:15:07;;;;;;;22.02;10.88;;;;;;;8.64;84.97;96814.66;5096360;28;20020;-63
2021/11/05 05:17:33;;;;;;;19.88;9.95;;;;;;;8.74;84.84;96818.72;5096181;28;20076;-64
2021/11/05 05:19:58;;;;;;;12.35;9.15;;;;;;;8.88;84.72;96828.78;5096145;28;20028;-61
2021/11/05 05:22:24;;;;;;;14.15;8.68;;;;;;;9.00;84.82;96831.97;5096426;28;20020;-63
2021/11/05 05:24:50;;;;;;;14.48;7.72;;;;;;;9.13;84.59;96846.41;5096216;28;20077;-66
2021/11/05 05:27:16;;;;;;;10.80;7.13;;;;;;;9.19;83.39;96840.16;5096011;28;20069;-63
2021/11/05 05:29:43;;;;;;;24.05;7.43;;;;;;;9.22;82.86;96842.69;5096055;28;20016;-64
2021/11/05 05:32:09;;;;;;;10.43;7.10;;;;;;;9.21;82.60;96844.44;5095878;28;20103;-64
2021/11/05 05:34:35;;;;;;;12.20;7.75;;;;;;;9.25;82.40;96836.50;5096008;28;20410;-64
2021/11/05 05:37:01;;;;;;;19.50;7.00;;;;;;;9.30;81.85;96845.09;5095891;28;20534;-62
2021/11/05 05:39:27;;;;;;;11.70;6.70;;;;;;;9.34;81.44;96844.09;5095803;28;20100;-64
2021/11/05 05:41:53;;;;;;;83.53;7.85;;;;;;;9.48;81.11;96849.78;5095829;28;20024;-65
2021/11/05 05:44:19;;;;;;;115.90;6.30;;;;;;;9.64;79.34;96846.72;5095617;28;20415;-63
2021/11/05 05:46:45;;;;;;;59.05;7.32;;;;;;;9.72;79.73;96849.97;5095565;28;20016;-60
2021/11/05 05:49:10;;;;;;;6.63;5.07;;;;;;;10.17;79.29;96857.34;5095580;28;20031;-63
2021/11/05 05:51:36;;;;;;;6.57;5.53;;;;;;;11.23;76.32;96854.72;5095485;28;20032;-63
2021/11/05 05:54:03;;;;;;;4.88;4.38;;;;;;;12.09;74.17;96863.88;5095472;28;20093;-62
2021/11/05 05:56:29;;;;;;;5.88;4.80;;;;;;;13.17;71.33;96857.75;5095402;28;20124;-61
2021/11/05 05:58:55;;;;;;;9.30;5.03;;;;;;;14.08;68.33;96857.22;5095788;28;20510;-63
2021/11/05 06:01:21;;;;;;;6.78;4.65;;;;;;;14.50;65.58;96865.75;5095246;28;20040;-65
2021/11/05 06:03:47;;;;;;;5.35;4.43;;;;;;;14.58;64.21;96856.63;5095314;28;20474;-63
2021/11/05 06:06:13;;;;;;;13.10;4.88;;;;;;;15.12;62.80;96867.16;5095291;28;20053;-64
2021/11/05 06:08:40;;;;;;;5.80;4.32;;;;;;;16.15;61.25;96855.63;5095222;28;20035;-64
2021/11/05 06:11:09;;;;;;;11.07;4.78;;;;;;;16.96;59.40;96866.91;5095055;28;20032;-63
2021/11/05 06:13:34;;;;;;;5.90;4.50;;;;;;;17.59;58.00;96866.72;5095143;28;20092;-66
2021/11/05 06:16:00;;;;;;;12.55;4.53;;;;;;;18.47;55.69;96869.25;5095111;28;20024;-64
2021/11/05 06:18:26;;;;;;;5.82;4.22;;;;;;;19.47;53.27;96868.84;5095128;28;20028;-61
2021/11/05 06:20:52;;;;;;;5.47;3.38;;;;;;;20.34;49.86;96875.22;5094948;28;20020;-64
2021/11/05 06:23:17;;;;;;;6.18;3.60;;;;;;;21.04;45.86;96874.63;5094495;28;20051;-63
2021/11/05 06:25:43;;;;;;;7.55;3.97;;;;;;;21.10;45.42;96882.09;5094815;28;20016;-62
2021/11/05 06:28:09;;;;;;;4.97;3.92;;;;;;;21.25;45.16;96884.59;5094869;28;20027;-66
2021/11/05 06:30:35;;;;;;;7.28;3.50;;;;;;;21.44;44.27;96884.00;5094748;28;20031;-65
2021/11/05 06:33:02;;;;;;;3.85;3.30;;;;;;;21.82;43.63;96872.22;5094651;28;20020;-60
2021/11/05 06:35:28;;;;;;;11.38;3.10;;;;;;;22.40;42.27;96870.34;5094868;28;20103;-63
2021/11/05 06:37:57;;;;;;;19.02;3.90;;;;;;;23.08;40.51;96877.25;5094904;28;20027;-64
2021/11/05 06:40:24;;;;;;;5.68;3.03;;;;;;;23.67;39.99;96878.63;5094639;28;20078;-61
2021/11/05 06:42:50;;;;;;;3.75;3.17;;;;;;;24.44;38.67;96876.38;5094466;28;20039;-62
2021/11/05 06:45:16;;;;;;;5.15;3.10;;;;;;;25.07;38.24;96882.38;5094487;28;20020;-66
2021/11/05 06:47:41;;;;;;;3.65;3.33;;;;;;;25.95;36.92;96890.41;5094556;28;20062;-65
2021/11/05 06:50:09;;;;;;;3.85;3.53;;;;;;;26.70;35.71;96877.88;5094407;28;20020;-66
2021/11/05 06:52:35;;;;;;;8.00;3.63;;;;;;;27.44;35.27;96883.03;5094353;28;20051;-65
2021/11/05 06:55:06;;;;;;;4.90;3.55;;;;;;;27.87;34.39;96882.31;5094337;28;20028;-61
2021/11/05 06:57:32;;;;;;;7.57;3.75;;;;;;;28.27;34.21;96890.75;5094389;28;20036;-65
2021/11/05 06:59:58;;;;;;;6.40;3.58;;;;;;;28.67;33.17;96888.34;5093990;28;20048;-64
2021/11/05 07:02:24;;;;;;;6.05;3.50;;;;;;;28.83;33.47;96884.84;5093028;28;20119;-64
2021/11/05 07:04:52;;;;;;;4.93;3.42;;;;;;;29.24;33.21;96881.38;5094208;28;20170;-65
2021/11/05 07:07:18;;;;;;;5.47;3.60;;;;;;;29.71;31.99;96887.06;5094000;28;20027;-61
2021/11/05 07:09:43;;;;;;;9.02;7.82;;;;;;;29.62;31.93;96893.50;5093974;28;20111;-65
2021/11/05 07:12:10;;;;;;;4.32;3.55;;;;;;;29.93;31.68;96892.75;5093943;28;20020;-62
2021/11/05 07:14:36;;;;;;;7.40;4.10;;;;;;;30.09;31.01;96888.28;5094009;28;20394;-62
2021/11/05 07:17:02;;;;;;;5.40;4.07;;;;;;;29.96;31.70;96894.25;5094027;28;20031;-60
2021/11/05 07:19:27;;;;;;;7.43;4.03;;;;;;;30.02;31.41;96886.31;5093877;28;20020;-65
2021/11/05 07:22:01;;;;;;;8.60;4.55;;;;;;;29.70;31.97;96888.06;5092609;28;20428;-65
2021/11/05 07:24:28;;;;;;;6.43;4.40;;;;;;;29.43;32.15;96884.72;5093753;28;20355;-65
2021/11/05 07:26:54;;;;;;;8.23;4.57;;;;;;;29.87;32.20;96891.59;5093756;28;20074;-60
2021/11/05 07:29:28;;;;;;;5.88;4.43;;;;;;;30.42;31.34;96896.28;5093755;28;20020;-68
2021/11/05 07:32:01;;;;;;;6.60;5.10;;;;;;;30.85;30.83;96878.88;5093639;28;20028;-65
2021/11/05 07:34:32;;;;;;;7.95;5.15;;;;;;;31.32;29.91;96878.81;5092918;28;20067;-64
2021/11/05 07:37:02;;;;;;;6.15;4.57;;;;;;;31.28;30.78;96881.06;5093622;28;20028;-65
2021/11/05 07:39:29;;;;;;;10.35;4.90;;;;;;;30.63;31.33;96884.00;5093534;28;20035;-64
2021/11/05 07:41:55;;;;;;;6.63;4.72;;;;;;;30.77;31.38;96880.59;5093401;28;20020;-59
2021/11/05 07:44:34;;;;;;;6.50;5.13;;;;;;;30.74;31.76;96880.06;5093439;28;20032;-67
2021/11/05 07:47:00;;;;;;;10.45;5.75;;;;;;;30.94;30.97;96883.16;5093430;28;20052;-62
2021/11/05 07:49:27;;;;;;;6.68;5.20;;;;;;;31.05;30.59;96883.75;5093351;28;20107;-62
2021/11/05 07:51:55;;;;;;;8.85;5.03;;;;;;;30.50;31.73;96882.75;5093286;28;20031;-65
2021/11/05 07:54:21;;;;;;;8.57;4.82;;;;;;;30.14;32.39;96881.38;5093425;28;20036;-66
2021/11/05 07:56:49;;;;;;;7.15;4.75;;;;;;;29.61;33.85;96881.88;5093226;28;20028;-60
2021/11/05 07:59:14;;;;;;;7.60;5.45;;;;;;;29.04;34.05;96877.34;5093189;28;20139;-62
2021/11/05 08:01:40;;;;;;;7.20;4.97;;;;;;;28.52;36.18;96880.09;5093044;28;20123;-65
2021/11/05 08:04:06;;;;;;;7.50;5.55;;;;;;;27.68;37.12;96880.69;5093324;28;20016;-60
2021/11/05 08:06:33;;;;;;;8.48;5.18;;;;;;;26.25;40.63;96883.88;5093322;28;20031;-64
2021/11/05 08:08:58;;;;;;;10.23;5.72;;;;;;;24.89;42.64;96879.56;5093209;28;20020;-62
2021/11/05 08:11:26;;;;;;;10.82;5.30;;;;;;;24.18;45.93;96876.91;5092926;28;20027;-62
2021/11/05 08:13:52;;;;;;;10.50;5.53;;;;;;;23.23;47.80;96885.78;5091898;28;20024;-62
2021/11/05 08:16:18;;;;;;;6.93;5.60;;;;;;;22.70;48.58;96882.13;5093096;28;20025;-63
2021/11/05 08:18:45;;;;;;;7.25;5.28;;;;;;;22.59;49.77;96885.72;5093113;28;20028;-63
2021/11/05 08:21:11;;;;;;;6.30;5.07;;;;;;;22.13;50.39;96887.59;5092948;28;20031;-63
2021/11/05 08:23:37;;;;;;;6.75;5.15;;;;;;;21.76;52.27;96887.84;5093057;28;20467;-65
2021/11/05 08:26:03;;;;;;;6.32;4.97;;;;;;;21.31;53.97;96884.13;5093034;28;20027;-61
2021/11/05 08:28:30;;;;;;;7.88;5.38;;;;;;;20.93;54.03;96878.06;5092958;28;20027;-64
2021/11/05 08:30:59;;;;;;;10.15;5.43;;;;;;;20.92;55.09;96882.53;5092926;28;20028;-64
2021/11/05 08:33:29;;;;;;;5.60;5.00;;;;;;;21.00;54.53;96881.09;5092946;28;20099;-62
2021/11/05 08:35:55;;;;;;;7.30;5.90;;;;;;;20.82;55.35;96887.66;5092877;28;20107;-63
2021/11/05 08:38:22;;;;;;;7.70;5.43;;;;;;;20.53;56.21;96882.69;5092863;28;20111;-66
2021/11/05 08:40:53;;;;;;;8.27;5.53;;;;;;;20.33;56.78;96887.66;5092818;28;20024;-63
2021/11/05 08:43:22;;;;;;;6.32;4.97;;;;;;;20.42;56.57;96887.94;5091702;28;20115;-61
2021/11/05 08:45:48;;;;;;;9.90;5.95;;;;;;;20.39;56.50;96881.06;5093862;28;20114;-64
2021/11/05 08:48:15;;;;;;;10.30;5.65;;;;;;;20.58;56.25;96885.00;5096716;28;20108;-64
2021/11/05 08:50:41;;;;;;;9.90;6.97;;;;;;;20.39;56.80;96889.03;5096654;28;20050;-62
2021/11/05 08:53:07;;;;;;;11.43;7.55;;;;;;;20.41;56.89;96879.13;5096735;28;20021;-64
2021/11/05 08:55:35;;;;;;;9.57;6.57;;;;;;;20.30;57.42;96873.75;5096598;28;20382;-65
2021/11/05 08:58:01;;;;;;;8.18;6.57;;;;;;;20.46;57.36;96873.47;5096576;28;20031;-61
2021/11/05 09:00:32;;;;;;;9.00;5.10;;;;;;;20.64;56.34;96865.97;5096287;28;20533;-61
2021/11/05 09:02:59;;;;;;;8.68;6.20;;;;;;;20.83;54.83;96867.28;5096484;28;20027;-66
2021/11/05 09:05:24;;;;;;;8.60;5.93;;;;;;;20.67;56.13;96875.50;5096479;28;20137;-64
2021/11/05 09:07:50;;;;;;;8.07;6.57;;;;;;;20.53;56.40;96879.22;5096464;28;20046;-65
2021/11/05 09:10:16;;;;;;;8.13;7.32;;;;;;;20.40;56.90;96873.91;5096158;28;20020;-63
2021/11/05 09:12:42;;;;;;;10.07;7.88;;;;;;;20.20;57.15;96862.97;5096268;28;20022;-63
2021/11/05 09:15:11;;;;;;;11.63;7.20;;;;;;;20.36;57.91;96869.78;5096239;28;20020;-62
2021/11/05 09:17:41;;;;;;;9.80;6.68;;;;;;;20.38;57.24;96855.44;5096291;28;20447;-60
2021/11/05 09:20:09;;;;;;;10.68;6.70;;;;;;;20.67;56.17;96847.13;5096267;28;20035;-63
2021/11/05 09:22:36;;;;;;;7.85;5.93;;;;;;;20.77;56.64;96846.47;5096075;28;20115;-63
2021/11/05 09:25:05;;;;;;;5.95;4.65;;;;;;;20.79;55.51;96852.47;5096060;28;20049;-64
2021/11/05 09:27:31;;;;;;;9.25;5.63;;;;;;;20.77;55.46;96849.94;5095961;28;20024;-63
2021/11/05 09:29:56;;;;;;;10.13;5.40;;;;;;;20.77;54.28;96849.13;5095918;28;20081;-61
2021/11/05 09:32:24;;;;;;;13.88;6.22;;;;;;;20.76;55.42;96850.06;5095920;28;20024;-64
2021/11/05 09:34:54;;;;;;;6.78;6.07;;;;;;;20.58;55.35;96845.16;5095900;28;20044;-62
2021/11/05 09:37:19;;;;;;;8.15;6.38;;;;;;;20.52;55.47;96845.59;5095842;28;20465;-61
2021/11/05 09:39:45;;;;;;;14.45;6.68;;;;;;;20.46;56.37;96846.91;5095759;28;20024;-65
2021/11/05 09:42:11;;;;;;;10.70;6.22;;;;;;;20.50;56.02;96851.03;5095762;28;20111;-62
2021/11/05 09:44:38;;;;;;;12.48;6.72;;;;;;;20.45;56.93;96851.41;5095786;28;20103;-64
2021/11/05 09:47:04;;;;;;;7.80;6.65;;;;;;;20.45;57.04;96842.56;5095647;28;20465;-62
2021/11/05 09:49:31;;;;;;;10.45;6.45;;;;;;;20.56;56.11;96847.09;5095498;28;20028;-61
2021/11/05 09:52:00;;;;;;;8.55;6.40;;;;;;;20.64;55.42;96844.69;5095480;28;20058;-67
2021/11/05 09:54:30;;;;;;;7.85;7.05;;;;;;;20.69;55.11;96839.06;5095468;28;20100;-64
2021/11/05 09:56:57;;;;;;;9.30;7.53;;;;;;;20.73;54.41;96844.97;5094993;28;20474;-64
2021/11/05 09:59:23;;;;;;;9.13;7.05;;;;;;;20.67;54.96;96839.16;5094891;28;20499;-64
2021/11/05 10:01:49;;;;;;;11.10;7.72;;;;;;;20.41;55.15;96833.97;5095339;28;20020;-63
2021/11/05 10:04:15;;;;;;;8.48;6.85;;;;;;;20.52;54.99;96827.88;5095407;28;20480;-60
2021/11/05 10:07:05;;;;;;;10.93;7.70;;;;;;;20.45;54.37;96826.63;5095267;28;20032;-62
2021/11/05 10:09:44;;;;;;;9.70;7.33;;;;;;;20.36;55.13;96820.19;5095323;28;20027;-66
2021/11/05 10:12:19;;;;;;;9.95;6.95;;;;;;;20.41;55.03;96820.69;5095182;28;20040;-66
2021/11/05 10:14:52;;;;;;;8.05;7.25;;;;;;;20.23;55.20;96814.06;5095076;28;20024;-65
2021/11/05 10:17:19;;;;;;;9.27;7.97;;;;;;;20.06;55.81;96816.16;5095083;28;20034;-61
2021/11/05 10:19:57;;;;;;;9.13;7.63;;;;;;;19.78;56.49;96815.47;5094956;28;20050;-65
2021/11/05 10:22:34;;;;;;;10.20;7.70;;;;;;;19.94;56.19;96818.72;5094962;28;20115;-62
2021/11/05 10:25:30;;;;;;;10.55;7.95;;;;;;;19.99;56.29;96812.22;5094930;28;20036;-63
2021/11/05 10:28:17;;;;;;;8.55;7.10;;;;;;;19.87;55.89;96808.63;5094974;28;20027;-64
2021/11/05 10:30:42;;;;;;;7.97;6.90;;;;;;;19.64;57.70;96804.03;5094698;28;20075;-62
2021/11/05 10:33:09;;;;;;;10.48;7.72;;;;;;;19.61;56.46;96806.88;5094724;28;20058;-64
2021/11/05 10:35:41;;;;;;;11.27;7.35;;;;;;;19.72;56.61;96821.19;5094775;28;20453;-63
2021/11/05 10:38:12;;;;;;;9.52;7.80;;;;;;;19.65;57.09;96813.66;5094769;28;20091;-61
2021/11/05 10:40:45;;;;;;;8.10;6.93;;;;;;;19.70;57.58;96810.69;5094617;28;20028;-62
2021/11/05 10:43:13;;;;;;;9.68;7.13;;;;;;;19.76;57.42;96807.59;5094651;28;20064;-61
2021/11/05 10:45:40;;;;;;;8.32;7.43;;;;;;;19.66;57.41;96812.69;5094517;28;20381;-64
2021/11/05 10:48:09;;;;;;;10.18;8.57;;;;;;;19.73;57.30;96812.28;5094530;28;20020;-63
2021/11/05 10:50:48;;;;;;;9.88;8.55;;;;;;;19.59;57.76;96800.84;5094298;28;20427;-66
2021/11/05 10:53:23;;;;;;;9.38;8.45;;;;;;;19.49;57.47;96794.47;5094325;28;20067;-62
2021/11/05 10:56:01;;;;;;;8.82;7.85;;;;;;;19.39;57.98;96796.94;5094344;28;20028;-62
2021/11/05 10:58:27;;;;;;;14.75;12.05;;;;;;;19.21;58.97;96791.13;5094377;28;20413;-67
2021/11/05 11:01:08;;;;;;;12.20;8.85;;;;;;;19.24;58.47;96797.06;5094099;28;20047;-66
2021/11/05 11:03:41;;;;;;;12.10;8.73;;;;;;;19.21;58.36;96791.97;5094257;28;20028;-64
2021/11/05 11:06:11;;;;;;;11.85;9.48;;;;;;;19.00;58.21;96791.59;5094139;28;20032;-62
2021/11/05 11:08:41;;;;;;;14.65;10.85;;;;;;;18.76;58.79;96792.31;5093687;28;20056;-65
2021/11/05 11:11:24;;;;;;;13.50;11.60;;;;;;;18.54;59.57;96799.03;5093581;28;20036;-65
2021/11/05 11:13:56;;;;;;;15.25;10.45;;;;;;;18.51;59.45;96789.50;5093948;28;20463;-62
2021/11/05 11:16:25;;;;;;;12.88;11.20;;;;;;;18.27;60.68;96786.69;5093961;28;20043;-67
2021/11/05 11:18:57;;;;;;;14.90;10.50;;;;;;;18.18;61.18;96785.47;5092583;28;20026;-61
2021/11/05 11:21:26;;;;;;;14.27;11.15;;;;;;;18.22;61.61;96779.06;5093895;28;20110;-65
2021/11/05 11:23:53;;;;;;;14.90;10.95;;;;;;;18.41;61.21;96775.19;5093915;28;20112;-65
2021/11/05 11:26:19;;;;;;;15.43;11.48;;;;;;;18.44;60.89;96774.97;5093766;28;20123;-62
2021/11/05 11:28:45;;;;;;;13.32;10.75;;;;;;;18.50;60.51;96771.94;5092616;28;20449;-63
2021/11/05 11:31:12;;;;;;;15.35;10.23;;;;;;;18.49;60.65;96757.00;5093620;28;20032;-65